sensor_id;sensor_type;location;lat;lon;timestamp;temperature;humidity
814;DHT22;389;48.710;9.392;2023-05-20T00:00:28;13.60;97.40
814;DHT22;389;48.710;9.392;2023-05-20T00:02:54;13.60;97.50
814;DHT22;389;48.710;9.392;2023-05-20T00:05:22;13.70;97.60
814;DHT22;389;48.710;9.392;2023-05-20T00:07:50;13.50;97.60
814;DHT22;389;48.710;9.392;2023-05-20T00:10:19;13.40;97.70
814;DHT22;389;48.710;9.392;2023-05-20T00:12:44;13.60;97.80
814;DHT22;389;48.710;9.392;2023-05-20T00:15:10;13.60;97.80
814;DHT22;389;48.710;9.392;2023-05-20T00:17:38;13.60;97.90
814;DHT22;389;48.710;9.392;2023-05-20T00:20:05;13.60;97.90
814;DHT22;389;48.710;9.392;2023-05-20T00:22:31;13.60;97.90
814;DHT22;389;48.710;9.392;2023-05-20T00:24:57;13.60;97.90
814;DHT22;389;48.710;9.392;2023-05-20T00:27:26;13.60;98.00
814;DHT22;389;48.710;9.392;2023-05-20T00:29:51;13.60;98.10
814;DHT22;389;48.710;9.392;2023-05-20T00:32:17;13.60;98.10
814;DHT22;389;48.710;9.392;2023-05-20T00:34:42;13.60;98.20
814;DHT22;389;48.710;9.392;2023-05-20T00:37:11;13.60;98.20
814;DHT22;389;48.710;9.392;2023-05-20T00:39:37;13.60;98.30
814;DHT22;389;48.710;9.392;2023-05-20T00:42:03;13.70;98.40
814;DHT22;389;48.710;9.392;2023-05-20T00:44:31;13.50;98.30
814;DHT22;389;48.710;9.392;2023-05-20T00:47:00;13.50;98.30
814;DHT22;389;48.710;9.392;2023-05-20T00:49:32;13.60;98.40
814;DHT22;389;48.710;9.392;2023-05-20T00:52:13;13.50;98.40
814;DHT22;389;48.710;9.392;2023-05-20T00:54:41;13.50;98.50
814;DHT22;389;48.710;9.392;2023-05-20T00:57:07;13.60;98.60
814;DHT22;389;48.710;9.392;2023-05-20T00:59:35;13.60;98.60
814;DHT22;389;48.710;9.392;2023-05-20T01:02:02;13.50;98.60
814;DHT22;389;48.710;9.392;2023-05-20T01:04:31;13.50;98.70
814;DHT22;389;48.710;9.392;2023-05-20T01:06:59;13.40;98.70
814;DHT22;389;48.710;9.392;2023-05-20T01:09:28;13.40;98.80
814;DHT22;389;48.710;9.392;2023-05-20T01:14:45;13.40;98.90
814;DHT22;389;48.710;9.392;2023-05-20T01:17:14;13.50;99.00
814;DHT22;389;48.710;9.392;2023-05-20T01:19:43;13.50;99.00
814;DHT22;389;48.710;9.392;2023-05-20T01:24:47;13.40;99.00
814;DHT22;389;48.710;9.392;2023-05-20T01:27:13;13.30;98.90
814;DHT22;389;48.710;9.392;2023-05-20T01:29:40;13.30;99.00
814;DHT22;389;48.710;9.392;2023-05-20T01:32:35;13.20;99.00
814;DHT22;389;48.710;9.392;2023-05-20T01:35:02;13.20;99.00
814;DHT22;389;48.710;9.392;2023-05-20T01:37:30;13.00;98.90
814;DHT22;389;48.710;9.392;2023-05-20T01:39:56;13.00;99.30
814;DHT22;389;48.710;9.392;2023-05-20T01:42:25;13.00;99.20
814;DHT22;389;48.710;9.392;2023-05-20T01:44:52;12.80;99.20
814;DHT22;389;48.710;9.392;2023-05-20T01:47:19;12.80;99.30
814;DHT22;389;48.710;9.392;2023-05-20T01:49:45;12.70;99.30
814;DHT22;389;48.710;9.392;2023-05-20T01:52:12;12.70;99.40
814;DHT22;389;48.710;9.392;2023-05-20T01:54:40;12.60;99.40
814;DHT22;389;48.710;9.392;2023-05-20T01:57:06;12.40;99.50
814;DHT22;389;48.710;9.392;2023-05-20T01:59:31;12.60;99.60
814;DHT22;389;48.710;9.392;2023-05-20T02:01:57;12.40;99.90
814;DHT22;389;48.710;9.392;2023-05-20T02:04:23;12.50;99.70
814;DHT22;389;48.710;9.392;2023-05-20T02:06:48;12.30;99.80
814;DHT22;389;48.710;9.392;2023-05-20T02:09:14;12.30;99.80
814;DHT22;389;48.710;9.392;2023-05-20T02:11:40;12.30;99.90
814;DHT22;389;48.710;9.392;2023-05-20T02:14:05;12.30;99.90
814;DHT22;389;48.710;9.392;2023-05-20T02:16:31;12.20;99.90
814;DHT22;389;48.710;9.392;2023-05-20T02:18:57;12.10;99.90
814;DHT22;389;48.710;9.392;2023-05-20T02:21:23;12.10;99.90
814;DHT22;389;48.710;9.392;2023-05-20T02:23:50;12.00;99.90
814;DHT22;389;48.710;9.392;2023-05-20T02:26:16;12.10;99.90
814;DHT22;389;48.710;9.392;2023-05-20T02:28:41;12.00;99.90
814;DHT22;389;48.710;9.392;2023-05-20T02:31:14;12.00;99.90
814;DHT22;389;48.710;9.392;2023-05-20T02:33:44;11.70;99.90
814;DHT22;389;48.710;9.392;2023-05-20T02:36:10;11.80;99.90
814;DHT22;389;48.710;9.392;2023-05-20T02:38:35;11.80;99.90
814;DHT22;389;48.710;9.392;2023-05-20T02:41:01;11.90;99.90
814;DHT22;389;48.710;9.392;2023-05-20T02:43:29;11.70;99.90
814;DHT22;389;48.710;9.392;2023-05-20T02:45:55;11.70;99.90
814;DHT22;389;48.710;9.392;2023-05-20T02:48:21;11.70;99.90
814;DHT22;389;48.710;9.392;2023-05-20T02:50:47;11.60;99.90
814;DHT22;389;48.710;9.392;2023-05-20T02:53:13;11.70;99.90
814;DHT22;389;48.710;9.392;2023-05-20T02:55:39;11.70;99.90
814;DHT22;389;48.710;9.392;2023-05-20T02:58:05;11.60;99.90
814;DHT22;389;48.710;9.392;2023-05-20T03:00:31;11.50;99.90
814;DHT22;389;48.710;9.392;2023-05-20T03:02:59;11.60;99.90
814;DHT22;389;48.710;9.392;2023-05-20T03:05:25;11.50;99.90
814;DHT22;389;48.710;9.392;2023-05-20T03:07:51;11.50;99.90
814;DHT22;389;48.710;9.392;2023-05-20T03:10:17;11.60;99.90
814;DHT22;389;48.710;9.392;2023-05-20T03:12:43;11.50;99.90
814;DHT22;389;48.710;9.392;2023-05-20T03:15:09;11.50;99.90
814;DHT22;389;48.710;9.392;2023-05-20T03:17:35;11.40;99.90
814;DHT22;389;48.710;9.392;2023-05-20T03:20:00;11.40;99.90
814;DHT22;389;48.710;9.392;2023-05-20T03:22:26;11.30;99.90
814;DHT22;389;48.710;9.392;2023-05-20T03:24:52;11.40;99.90
814;DHT22;389;48.710;9.392;2023-05-20T03:27:17;11.40;99.90
814;DHT22;389;48.710;9.392;2023-05-20T03:29:43;11.40;99.90
814;DHT22;389;48.710;9.392;2023-05-20T03:32:09;11.20;99.90
814;DHT22;389;48.710;9.392;2023-05-20T03:34:34;11.30;99.90
814;DHT22;389;48.710;9.392;2023-05-20T03:37:05;11.10;99.90
814;DHT22;389;48.710;9.392;2023-05-20T03:39:30;11.10;99.90
814;DHT22;389;48.710;9.392;2023-05-20T03:41:59;11.00;99.90
814;DHT22;389;48.710;9.392;2023-05-20T03:44:25;11.10;99.90
814;DHT22;389;48.710;9.392;2023-05-20T03:46:54;11.10;99.90
814;DHT22;389;48.710;9.392;2023-05-20T03:49:22;11.00;99.90
814;DHT22;389;48.710;9.392;2023-05-20T03:51:50;11.00;99.90
814;DHT22;389;48.710;9.392;2023-05-20T03:54:18;11.10;99.90
814;DHT22;389;48.710;9.392;2023-05-20T03:56:46;11.10;99.90
814;DHT22;389;48.710;9.392;2023-05-20T03:59:13;11.20;99.90
814;DHT22;389;48.710;9.392;2023-05-20T04:01:39;11.20;99.90
814;DHT22;389;48.710;9.392;2023-05-20T04:04:10;11.30;99.90
814;DHT22;389;48.710;9.392;2023-05-20T04:07:02;11.40;99.90
814;DHT22;389;48.710;9.392;2023-05-20T04:09:34;11.50;99.90
814;DHT22;389;48.710;9.392;2023-05-20T04:12:11;11.60;99.90
814;DHT22;389;48.710;9.392;2023-05-20T04:14:40;11.70;99.90
814;DHT22;389;48.710;9.392;2023-05-20T04:17:06;11.80;99.90
814;DHT22;389;48.710;9.392;2023-05-20T04:19:34;11.80;99.90
814;DHT22;389;48.710;9.392;2023-05-20T04:22:06;12.10;99.90
814;DHT22;389;48.710;9.392;2023-05-20T04:24:39;12.10;99.90
814;DHT22;389;48.710;9.392;2023-05-20T04:27:06;12.30;99.90
814;DHT22;389;48.710;9.392;2023-05-20T04:29:38;12.40;99.90
814;DHT22;389;48.710;9.392;2023-05-20T04:32:12;12.20;99.90
814;DHT22;389;48.710;9.392;2023-05-20T04:34:37;12.50;99.90
814;DHT22;389;48.710;9.392;2023-05-20T04:37:03;12.80;99.90
814;DHT22;389;48.710;9.392;2023-05-20T04:39:29;12.90;99.90
814;DHT22;389;48.710;9.392;2023-05-20T04:41:54;12.90;99.90
814;DHT22;389;48.710;9.392;2023-05-20T04:44:23;13.10;99.90
814;DHT22;389;48.710;9.392;2023-05-20T04:46:51;13.10;99.90
814;DHT22;389;48.710;9.392;2023-05-20T04:49:17;13.20;99.90
814;DHT22;389;48.710;9.392;2023-05-20T04:51:48;13.40;99.90
814;DHT22;389;48.710;9.392;2023-05-20T04:54:19;13.40;99.90
814;DHT22;389;48.710;9.392;2023-05-20T04:56:48;13.60;99.90
814;DHT22;389;48.710;9.392;2023-05-20T04:59:13;13.70;99.90
814;DHT22;389;48.710;9.392;2023-05-20T05:01:39;13.70;99.90
814;DHT22;389;48.710;9.392;2023-05-20T05:04:05;13.80;99.90
814;DHT22;389;48.710;9.392;2023-05-20T05:06:33;14.00;99.90
814;DHT22;389;48.710;9.392;2023-05-20T05:08:59;13.80;99.80
814;DHT22;389;48.710;9.392;2023-05-20T05:11:25;14.30;99.90
814;DHT22;389;48.710;9.392;2023-05-20T05:13:56;14.40;99.70
814;DHT22;389;48.710;9.392;2023-05-20T05:16:25;14.40;99.50
814;DHT22;389;48.710;9.392;2023-05-20T05:18:58;14.40;99.20
814;DHT22;389;48.710;9.392;2023-05-20T05:21:31;14.70;99.20
814;DHT22;389;48.710;9.392;2023-05-20T05:23:59;14.90;99.10
814;DHT22;389;48.710;9.392;2023-05-20T05:26:32;15.00;98.90
814;DHT22;389;48.710;9.392;2023-05-20T05:29:01;15.00;98.50
814;DHT22;389;48.710;9.392;2023-05-20T05:31:29;15.30;98.40
814;DHT22;389;48.710;9.392;2023-05-20T05:33:55;15.50;98.20
814;DHT22;389;48.710;9.392;2023-05-20T05:36:25;15.70;98.10
814;DHT22;389;48.710;9.392;2023-05-20T05:39:01;15.70;97.70
814;DHT22;389;48.710;9.392;2023-05-20T05:41:27;15.90;97.50
814;DHT22;389;48.710;9.392;2023-05-20T05:44:01;16.00;97.30
814;DHT22;389;48.710;9.392;2023-05-20T05:46:29;16.30;97.20
814;DHT22;389;48.710;9.392;2023-05-20T05:49:00;16.50;97.00
814;DHT22;389;48.710;9.392;2023-05-20T05:51:26;16.40;96.70
814;DHT22;389;48.710;9.392;2023-05-20T05:53:55;16.60;96.10
814;DHT22;389;48.710;9.392;2023-05-20T05:56:23;16.70;95.90
814;DHT22;389;48.710;9.392;2023-05-20T05:58:49;16.80;95.70
814;DHT22;389;48.710;9.392;2023-05-20T06:01:15;16.90;95.30
814;DHT22;389;48.710;9.392;2023-05-20T06:03:48;17.20;95.20
814;DHT22;389;48.710;9.392;2023-05-20T06:06:19;17.50;95.00
814;DHT22;389;48.710;9.392;2023-05-20T06:08:53;17.70;94.30
814;DHT22;389;48.710;9.392;2023-05-20T06:11:19;18.10;94.00
814;DHT22;389;48.710;9.392;2023-05-20T06:13:45;18.10;93.40
814;DHT22;389;48.710;9.392;2023-05-20T06:16:10;18.20;93.00
814;DHT22;389;48.710;9.392;2023-05-20T06:18:36;18.40;93.00
814;DHT22;389;48.710;9.392;2023-05-20T06:21:03;18.60;92.80
814;DHT22;389;48.710;9.392;2023-05-20T06:23:31;18.70;92.10
814;DHT22;389;48.710;9.392;2023-05-20T06:25:57;18.90;92.10
814;DHT22;389;48.710;9.392;2023-05-20T06:28:24;19.10;91.70
814;DHT22;389;48.710;9.392;2023-05-20T06:30:55;19.30;91.50
814;DHT22;389;48.710;9.392;2023-05-20T06:33:25;19.50;91.10
814;DHT22;389;48.710;9.392;2023-05-20T06:35:58;19.80;90.70
814;DHT22;389;48.710;9.392;2023-05-20T06:38:26;20.00;90.20
814;DHT22;389;48.710;9.392;2023-05-20T06:40:54;20.00;89.70
814;DHT22;389;48.710;9.392;2023-05-20T06:43:25;20.20;89.50
814;DHT22;389;48.710;9.392;2023-05-20T06:45:52;20.20;89.10
814;DHT22;389;48.710;9.392;2023-05-20T06:48:21;20.30;88.70
814;DHT22;389;48.710;9.392;2023-05-20T06:50:56;20.40;88.00
814;DHT22;389;48.710;9.392;2023-05-20T06:53:35;20.40;88.10
814;DHT22;389;48.710;9.392;2023-05-20T06:56:17;20.60;88.10
814;DHT22;389;48.710;9.392;2023-05-20T06:58:58;20.40;87.20
814;DHT22;389;48.710;9.392;2023-05-20T07:01:24;20.50;86.70
814;DHT22;389;48.710;9.392;2023-05-20T07:03:50;20.40;87.10
814;DHT22;389;48.710;9.392;2023-05-20T07:06:18;20.20;87.50
814;DHT22;389;48.710;9.392;2023-05-20T07:08:44;20.30;87.50
814;DHT22;389;48.710;9.392;2023-05-20T07:11:10;20.30;87.50
814;DHT22;389;48.710;9.392;2023-05-20T07:13:38;20.30;87.40
814;DHT22;389;48.710;9.392;2023-05-20T07:16:04;20.30;87.50
814;DHT22;389;48.710;9.392;2023-05-20T07:18:40;20.30;87.10
814;DHT22;389;48.710;9.392;2023-05-20T07:21:11;20.30;86.50
814;DHT22;389;48.710;9.392;2023-05-20T07:23:37;20.20;86.70
814;DHT22;389;48.710;9.392;2023-05-20T07:26:02;20.10;86.50
814;DHT22;389;48.710;9.392;2023-05-20T07:28:28;19.90;86.40
814;DHT22;389;48.710;9.392;2023-05-20T07:30:59;19.80;86.80
814;DHT22;389;48.710;9.392;2023-05-20T07:33:32;19.80;87.20
814;DHT22;389;48.710;9.392;2023-05-20T07:35:58;19.80;87.30
814;DHT22;389;48.710;9.392;2023-05-20T07:38:44;19.80;87.60
814;DHT22;389;48.710;9.392;2023-05-20T07:41:10;19.80;87.40
814;DHT22;389;48.710;9.392;2023-05-20T07:43:38;19.80;87.20
814;DHT22;389;48.710;9.392;2023-05-20T07:46:13;19.80;87.80
814;DHT22;389;48.710;9.392;2023-05-20T07:48:47;20.00;88.10
814;DHT22;389;48.710;9.392;2023-05-20T07:51:15;20.20;87.10
814;DHT22;389;48.710;9.392;2023-05-20T07:53:50;20.20;86.90
814;DHT22;389;48.710;9.392;2023-05-20T07:56:20;20.40;86.60
814;DHT22;389;48.710;9.392;2023-05-20T07:59:02;20.50;86.30
814;DHT22;389;48.710;9.392;2023-05-20T08:01:32;20.70;85.90
814;DHT22;389;48.710;9.392;2023-05-20T08:04:02;20.80;85.30
814;DHT22;389;48.710;9.392;2023-05-20T08:06:30;20.90;85.30
814;DHT22;389;48.710;9.392;2023-05-20T08:08:59;21.00;84.40
814;DHT22;389;48.710;9.392;2023-05-20T08:11:25;21.10;84.20
814;DHT22;389;48.710;9.392;2023-05-20T08:13:54;21.20;83.90
814;DHT22;389;48.710;9.392;2023-05-20T08:16:28;21.30;83.80
814;DHT22;389;48.710;9.392;2023-05-20T08:18:59;21.20;83.40
814;DHT22;389;48.710;9.392;2023-05-20T08:21:25;21.50;83.10
814;DHT22;389;48.710;9.392;2023-05-20T08:23:51;21.50;83.20
814;DHT22;389;48.710;9.392;2023-05-20T08:26:16;21.40;82.70
814;DHT22;389;48.710;9.392;2023-05-20T08:28:42;21.50;83.40
814;DHT22;389;48.710;9.392;2023-05-20T08:31:07;21.50;83.30
814;DHT22;389;48.710;9.392;2023-05-20T08:33:34;21.70;83.10
814;DHT22;389;48.710;9.392;2023-05-20T08:35:59;21.80;82.30
814;DHT22;389;48.710;9.392;2023-05-20T08:38:25;21.90;81.60
814;DHT22;389;48.710;9.392;2023-05-20T08:40:54;22.10;81.70
814;DHT22;389;48.710;9.392;2023-05-20T08:43:21;22.20;80.50
814;DHT22;389;48.710;9.392;2023-05-20T08:45:48;22.30;80.80
814;DHT22;389;48.710;9.392;2023-05-20T08:48:16;22.50;80.50
814;DHT22;389;48.710;9.392;2023-05-20T08:50:47;22.60;80.00
814;DHT22;389;48.710;9.392;2023-05-20T08:53:24;22.80;79.70
814;DHT22;389;48.710;9.392;2023-05-20T08:55:55;23.10;79.60
814;DHT22;389;48.710;9.392;2023-05-20T08:58:24;23.20;78.90
814;DHT22;389;48.710;9.392;2023-05-20T09:00:50;23.40;78.40
814;DHT22;389;48.710;9.392;2023-05-20T09:03:17;23.40;77.70
814;DHT22;389;48.710;9.392;2023-05-20T09:05:45;23.20;78.30
814;DHT22;389;48.710;9.392;2023-05-20T09:08:10;23.00;77.50
814;DHT22;389;48.710;9.392;2023-05-20T09:10:38;22.70;77.90
814;DHT22;389;48.710;9.392;2023-05-20T09:13:04;22.60;78.40
814;DHT22;389;48.710;9.392;2023-05-20T09:15:32;22.60;79.70
814;DHT22;389;48.710;9.392;2023-05-20T09:18:02;22.60;79.10
814;DHT22;389;48.710;9.392;2023-05-20T09:20:29;22.70;79.00
814;DHT22;389;48.710;9.392;2023-05-20T09:23:01;22.70;79.30
814;DHT22;389;48.710;9.392;2023-05-20T09:25:27;22.70;79.00
814;DHT22;389;48.710;9.392;2023-05-20T09:27:58;22.80;79.50
814;DHT22;389;48.710;9.392;2023-05-20T09:30:23;22.90;78.90
814;DHT22;389;48.710;9.392;2023-05-20T09:32:57;23.00;78.20
814;DHT22;389;48.710;9.392;2023-05-20T09:35:23;23.20;78.20
814;DHT22;389;48.710;9.392;2023-05-20T09:37:55;23.50;77.10
814;DHT22;389;48.710;9.392;2023-05-20T09:40:26;23.70;76.50
814;DHT22;389;48.710;9.392;2023-05-20T09:43:05;24.00;76.10
814;DHT22;389;48.710;9.392;2023-05-20T09:45:37;24.10;75.60
814;DHT22;389;48.710;9.392;2023-05-20T09:48:03;24.30;75.30
814;DHT22;389;48.710;9.392;2023-05-20T09:50:33;24.30;75.40
814;DHT22;389;48.710;9.392;2023-05-20T09:53:02;24.20;74.00
814;DHT22;389;48.710;9.392;2023-05-20T09:55:28;24.20;74.10
814;DHT22;389;48.710;9.392;2023-05-20T09:57:55;24.30;74.00
814;DHT22;389;48.710;9.392;2023-05-20T10:00:21;24.40;73.20
814;DHT22;389;48.710;9.392;2023-05-20T10:02:50;24.40;73.00
814;DHT22;389;48.710;9.392;2023-05-20T10:05:26;24.40;74.80
814;DHT22;389;48.710;9.392;2023-05-20T10:11:18;24.00;73.10
814;DHT22;389;48.710;9.392;2023-05-20T10:19:33;23.70;74.00
814;DHT22;389;48.710;9.392;2023-05-20T10:22:07;23.60;74.20
814;DHT22;389;48.710;9.392;2023-05-20T10:24:40;23.60;74.40
814;DHT22;389;48.710;9.392;2023-05-20T10:27:13;23.60;74.20
814;DHT22;389;48.710;9.392;2023-05-20T10:29:56;23.50;73.60
814;DHT22;389;48.710;9.392;2023-05-20T10:32:30;23.50;74.60
814;DHT22;389;48.710;9.392;2023-05-20T10:35:00;23.70;74.60
814;DHT22;389;48.710;9.392;2023-05-20T10:37:28;23.90;74.50
814;DHT22;389;48.710;9.392;2023-05-20T10:40:10;24.10;73.80
814;DHT22;389;48.710;9.392;2023-05-20T10:42:36;24.20;73.60
814;DHT22;389;48.710;9.392;2023-05-20T10:45:02;24.40;72.20
814;DHT22;389;48.710;9.392;2023-05-20T10:47:29;24.50;72.60
814;DHT22;389;48.710;9.392;2023-05-20T10:49:55;24.60;72.10
814;DHT22;389;48.710;9.392;2023-05-20T10:52:21;24.70;72.50
814;DHT22;389;48.710;9.392;2023-05-20T10:54:57;24.80;72.70
814;DHT22;389;48.710;9.392;2023-05-20T10:57:25;24.90;71.70
814;DHT22;389;48.710;9.392;2023-05-20T10:59:52;25.00;71.50
814;DHT22;389;48.710;9.392;2023-05-20T11:02:18;25.20;70.20
814;DHT22;389;48.710;9.392;2023-05-20T11:04:50;25.20;70.40
814;DHT22;389;48.710;9.392;2023-05-20T11:07:30;25.30;70.80
814;DHT22;389;48.710;9.392;2023-05-20T11:09:59;25.50;70.50
814;DHT22;389;48.710;9.392;2023-05-20T11:12:26;25.70;69.60
814;DHT22;389;48.710;9.392;2023-05-20T11:14:52;25.80;68.40
814;DHT22;389;48.710;9.392;2023-05-20T11:17:18;25.90;68.20
814;DHT22;389;48.710;9.392;2023-05-20T11:19:45;25.80;68.60
814;DHT22;389;48.710;9.392;2023-05-20T11:22:11;25.80;68.90
814;DHT22;389;48.710;9.392;2023-05-20T11:24:37;25.80;68.80
814;DHT22;389;48.710;9.392;2023-05-20T11:27:03;25.80;67.50
814;DHT22;389;48.710;9.392;2023-05-20T11:29:28;25.80;68.20
814;DHT22;389;48.710;9.392;2023-05-20T11:31:56;25.80;67.90
814;DHT22;389;48.710;9.392;2023-05-20T11:34:22;25.70;67.90
814;DHT22;389;48.710;9.392;2023-05-20T11:36:58;25.60;67.60
814;DHT22;389;48.710;9.392;2023-05-20T11:39:24;25.50;68.10
814;DHT22;389;48.710;9.392;2023-05-20T11:41:51;25.40;68.00
814;DHT22;389;48.710;9.392;2023-05-20T11:44:19;25.60;68.10
814;DHT22;389;48.710;9.392;2023-05-20T11:46:48;25.70;68.00
814;DHT22;389;48.710;9.392;2023-05-20T11:49:14;25.70;67.70
814;DHT22;389;48.710;9.392;2023-05-20T11:51:40;25.80;67.40
814;DHT22;389;48.710;9.392;2023-05-20T11:54:07;25.70;67.10
814;DHT22;389;48.710;9.392;2023-05-20T11:56:34;25.70;66.70
814;DHT22;389;48.710;9.392;2023-05-20T11:59:04;25.80;67.20
814;DHT22;389;48.710;9.392;2023-05-20T12:01:32;25.80;67.10
814;DHT22;389;48.710;9.392;2023-05-20T12:04:08;25.80;67.20
814;DHT22;389;48.710;9.392;2023-05-20T12:06:35;25.90;66.80
814;DHT22;389;48.710;9.392;2023-05-20T12:09:05;25.90;66.30
814;DHT22;389;48.710;9.392;2023-05-20T12:11:38;26.10;66.30
814;DHT22;389;48.710;9.392;2023-05-20T12:14:08;26.20;66.50
814;DHT22;389;48.710;9.392;2023-05-20T12:16:35;26.20;65.70
814;DHT22;389;48.710;9.392;2023-05-20T12:19:01;26.20;65.70
814;DHT22;389;48.710;9.392;2023-05-20T12:21:30;26.30;66.00
814;DHT22;389;48.710;9.392;2023-05-20T12:23:56;26.40;66.50
814;DHT22;389;48.710;9.392;2023-05-20T12:26:23;26.60;66.10
814;DHT22;389;48.710;9.392;2023-05-20T12:28:48;26.70;65.40
814;DHT22;389;48.710;9.392;2023-05-20T12:31:14;26.90;64.60
814;DHT22;389;48.710;9.392;2023-05-20T12:33:39;27.00;64.50
814;DHT22;389;48.710;9.392;2023-05-20T12:36:05;27.10;63.00
814;DHT22;389;48.710;9.392;2023-05-20T12:38:31;27.20;63.30
814;DHT22;389;48.710;9.392;2023-05-20T12:40:57;27.20;62.60
814;DHT22;389;48.710;9.392;2023-05-20T12:43:23;27.10;62.50
814;DHT22;389;48.710;9.392;2023-05-20T12:45:49;27.20;62.60
814;DHT22;389;48.710;9.392;2023-05-20T12:48:15;27.20;61.80
814;DHT22;389;48.710;9.392;2023-05-20T12:50:41;27.30;62.30
814;DHT22;389;48.710;9.392;2023-05-20T12:53:06;27.30;62.10
814;DHT22;389;48.710;9.392;2023-05-20T12:55:32;27.30;61.20
814;DHT22;389;48.710;9.392;2023-05-20T12:57:57;27.30;61.50
814;DHT22;389;48.710;9.392;2023-05-20T13:00:23;27.40;61.30
814;DHT22;389;48.710;9.392;2023-05-20T13:02:48;27.50;61.20
814;DHT22;389;48.710;9.392;2023-05-20T13:05:14;27.60;61.00
814;DHT22;389;48.710;9.392;2023-05-20T13:07:40;27.60;61.30
814;DHT22;389;48.710;9.392;2023-05-20T13:10:06;27.70;60.90
814;DHT22;389;48.710;9.392;2023-05-20T13:12:33;27.70;60.10
814;DHT22;389;48.710;9.392;2023-05-20T13:14:59;27.70;59.40
814;DHT22;389;48.710;9.392;2023-05-20T13:17:24;27.90;59.90
814;DHT22;389;48.710;9.392;2023-05-20T13:19:51;28.00;59.50
814;DHT22;389;48.710;9.392;2023-05-20T13:22:16;28.20;59.60
814;DHT22;389;48.710;9.392;2023-05-20T13:24:42;28.30;58.50
814;DHT22;389;48.710;9.392;2023-05-20T13:27:07;28.20;58.60
814;DHT22;389;48.710;9.392;2023-05-20T13:29:33;28.00;58.40
814;DHT22;389;48.710;9.392;2023-05-20T13:31:58;27.90;58.40
814;DHT22;389;48.710;9.392;2023-05-20T13:34:24;27.70;58.70
814;DHT22;389;48.710;9.392;2023-05-20T13:36:49;27.50;59.20
814;DHT22;389;48.710;9.392;2023-05-20T13:39:15;27.40;59.50
814;DHT22;389;48.710;9.392;2023-05-20T13:41:41;27.30;59.70
814;DHT22;389;48.710;9.392;2023-05-20T13:44:07;27.20;59.90
814;DHT22;389;48.710;9.392;2023-05-20T13:46:33;27.20;59.90
814;DHT22;389;48.710;9.392;2023-05-20T13:48:59;27.30;60.10
814;DHT22;389;48.710;9.392;2023-05-20T13:51:25;27.40;59.50
814;DHT22;389;48.710;9.392;2023-05-20T13:53:50;27.50;59.50
814;DHT22;389;48.710;9.392;2023-05-20T13:56:16;27.70;59.60
814;DHT22;389;48.710;9.392;2023-05-20T13:58:42;27.60;58.40
814;DHT22;389;48.710;9.392;2023-05-20T14:01:07;27.60;58.70
814;DHT22;389;48.710;9.392;2023-05-20T14:03:33;27.60;59.00
814;DHT22;389;48.710;9.392;2023-05-20T14:06:00;27.60;59.00
814;DHT22;389;48.710;9.392;2023-05-20T14:08:26;27.70;58.70
814;DHT22;389;48.710;9.392;2023-05-20T14:10:51;27.70;58.50
814;DHT22;389;48.710;9.392;2023-05-20T14:13:23;27.80;58.50
814;DHT22;389;48.710;9.392;2023-05-20T14:15:49;28.00;58.60
814;DHT22;389;48.710;9.392;2023-05-20T14:18:15;28.00;57.90
814;DHT22;389;48.710;9.392;2023-05-20T14:20:41;28.10;57.70
814;DHT22;389;48.710;9.392;2023-05-20T14:23:07;28.10;57.90
814;DHT22;389;48.710;9.392;2023-05-20T14:25:32;28.20;57.70
814;DHT22;389;48.710;9.392;2023-05-20T14:27:58;28.10;57.70
814;DHT22;389;48.710;9.392;2023-05-20T14:30:23;28.10;58.40
814;DHT22;389;48.710;9.392;2023-05-20T14:32:50;28.10;56.90
814;DHT22;389;48.710;9.392;2023-05-20T14:35:15;27.90;56.80
814;DHT22;389;48.710;9.392;2023-05-20T14:37:42;27.80;57.30
814;DHT22;389;48.710;9.392;2023-05-20T14:40:08;27.70;57.80
814;DHT22;389;48.710;9.392;2023-05-20T14:42:35;27.50;57.80
814;DHT22;389;48.710;9.392;2023-05-20T14:45:01;27.50;58.10
814;DHT22;389;48.710;9.392;2023-05-20T14:47:27;27.50;57.80
814;DHT22;389;48.710;9.392;2023-05-20T14:49:52;27.40;58.20
814;DHT22;389;48.710;9.392;2023-05-20T14:52:18;27.30;57.70
814;DHT22;389;48.710;9.392;2023-05-20T14:54:44;27.10;57.90
814;DHT22;389;48.710;9.392;2023-05-20T14:57:09;27.10;58.30
814;DHT22;389;48.710;9.392;2023-05-20T14:59:36;27.10;58.70
814;DHT22;389;48.710;9.392;2023-05-20T15:02:02;27.10;58.80
814;DHT22;389;48.710;9.392;2023-05-20T15:04:28;27.00;58.70
814;DHT22;389;48.710;9.392;2023-05-20T15:06:54;26.90;58.90
814;DHT22;389;48.710;9.392;2023-05-20T15:09:20;26.80;59.00
814;DHT22;389;48.710;9.392;2023-05-20T15:11:46;26.70;59.30
814;DHT22;389;48.710;9.392;2023-05-20T15:14:12;26.60;59.50
814;DHT22;389;48.710;9.392;2023-05-20T15:16:38;26.70;60.00
814;DHT22;389;48.710;9.392;2023-05-20T15:19:03;26.70;59.80
814;DHT22;389;48.710;9.392;2023-05-20T15:21:29;26.70;59.30
814;DHT22;389;48.710;9.392;2023-05-20T15:23:56;26.70;59.00
814;DHT22;389;48.710;9.392;2023-05-20T15:26:22;26.80;59.40
814;DHT22;389;48.710;9.392;2023-05-20T15:28:48;26.80;59.30
814;DHT22;389;48.710;9.392;2023-05-20T15:31:13;26.80;59.60
814;DHT22;389;48.710;9.392;2023-05-20T15:33:39;26.70;59.70
814;DHT22;389;48.710;9.392;2023-05-20T15:36:05;26.80;60.10
814;DHT22;389;48.710;9.392;2023-05-20T15:38:30;26.70;60.10
814;DHT22;389;48.710;9.392;2023-05-20T15:40:56;26.70;60.10
814;DHT22;389;48.710;9.392;2023-05-20T15:43:22;26.70;59.80
814;DHT22;389;48.710;9.392;2023-05-20T15:45:47;26.80;59.80
814;DHT22;389;48.710;9.392;2023-05-20T15:48:13;26.80;60.30
814;DHT22;389;48.710;9.392;2023-05-20T15:50:39;26.80;60.10
814;DHT22;389;48.710;9.392;2023-05-20T15:53:06;26.90;60.40
814;DHT22;389;48.710;9.392;2023-05-20T15:55:32;27.00;59.70
814;DHT22;389;48.710;9.392;2023-05-20T15:57:58;27.10;59.60
814;DHT22;389;48.710;9.392;2023-05-20T16:00:23;27.10;59.50
814;DHT22;389;48.710;9.392;2023-05-20T16:02:49;27.20;59.50
814;DHT22;389;48.710;9.392;2023-05-20T16:05:15;27.30;59.80
814;DHT22;389;48.710;9.392;2023-05-20T16:07:42;27.30;59.90
814;DHT22;389;48.710;9.392;2023-05-20T16:10:08;27.40;59.60
814;DHT22;389;48.710;9.392;2023-05-20T16:12:34;27.30;59.60
814;DHT22;389;48.710;9.392;2023-05-20T16:15:00;27.20;59.70
814;DHT22;389;48.710;9.392;2023-05-20T16:17:26;27.20;59.40
814;DHT22;389;48.710;9.392;2023-05-20T16:19:51;27.30;59.80
814;DHT22;389;48.710;9.392;2023-05-20T16:22:17;27.40;59.90
814;DHT22;389;48.710;9.392;2023-05-20T16:24:43;27.60;59.70
814;DHT22;389;48.710;9.392;2023-05-20T16:27:09;27.70;59.10
814;DHT22;389;48.710;9.392;2023-05-20T16:29:35;27.80;59.10
814;DHT22;389;48.710;9.392;2023-05-20T16:32:04;27.90;59.00
814;DHT22;389;48.710;9.392;2023-05-20T16:34:31;27.80;59.00
814;DHT22;389;48.710;9.392;2023-05-20T16:36:57;27.80;59.10
814;DHT22;389;48.710;9.392;2023-05-20T16:39:23;27.80;58.80
814;DHT22;389;48.710;9.392;2023-05-20T16:41:48;27.70;58.30
814;DHT22;389;48.710;9.392;2023-05-20T16:44:14;27.60;58.60
814;DHT22;389;48.710;9.392;2023-05-20T16:46:40;27.60;58.40
814;DHT22;389;48.710;9.392;2023-05-20T16:49:05;27.60;58.50
814;DHT22;389;48.710;9.392;2023-05-20T16:51:31;27.50;58.10